Time;durP1;ratioP1;P1;durP2;ratioP2;P2;SDS_P1;SDS_P2;PMS_P1;PMS_P2;Temp;Humidity;BMP_temperature;BMP_pressure;BME280_temperature;BME280_humidity;BME280_pressure;Samples;Min_cycle;Max_cycle;Signal;HPM_P1;HPM_P2
2021/10/30 00:02:01;;;;;;;21.00;18.80;;;11.10;99.90;;;;;;5044915;28;21038;-74
2021/10/30 00:04:28;;;;;;;21.83;19.40;;;11.10;99.90;;;;;;5045045;28;20239;-74
2021/10/30 00:06:56;;;;;;;20.83;18.67;;;11.00;99.90;;;;;;5045257;28;20204;-74
2021/10/30 00:09:23;;;;;;;21.30;19.00;;;11.00;99.90;;;;;;5044984;28;20255;-74
2021/10/30 00:11:50;;;;;;;21.27;19.07;;;11.00;99.90;;;;;;5044750;28;20722;-74
2021/10/30 00:14:17;;;;;;;22.07;19.13;;;11.00;99.90;;;;;;5044998;28;20199;-74
2021/10/30 00:16:43;;;;;;;22.17;19.03;;;11.00;99.90;;;;;;5044947;28;20211;-73
2021/10/30 00:19:12;;;;;;;24.47;20.50;;;10.90;99.90;;;;;;5045069;28;20204;-73
2021/10/30 00:21:38;;;;;;;23.10;19.63;;;10.80;99.90;;;;;;5044490;28;20648;-73
2021/10/30 00:24:05;;;;;;;22.27;19.47;;;10.80;99.90;;;;;;5044741;28;20264;-74
2021/10/30 00:26:32;;;;;;;22.57;19.70;;;10.60;99.90;;;;;;5044799;28;20268;-73
2021/10/30 00:28:59;;;;;;;22.10;19.63;;;10.70;99.90;;;;;;5044707;28;20204;-73
2021/10/30 00:31:30;;;;;;;21.43;19.10;;;10.70;99.90;;;;;;5044849;28;20222;-74
2021/10/30 00:33:57;;;;;;;22.33;19.93;;;10.80;99.90;;;;;;5045052;28;20188;-74
2021/10/30 00:36:25;;;;;;;23.07;19.53;;;10.90;99.90;;;;;;5044918;28;20274;-73
2021/10/30 00:38:52;;;;;;;22.50;19.23;;;10.90;99.90;;;;;;5044800;28;20205;-72
2021/10/30 00:41:19;;;;;;;24.73;20.57;;;10.90;99.90;;;;;;5044838;28;20231;-72
2021/10/30 00:43:48;;;;;;;22.17;19.77;;;10.90;99.90;;;;;;5044908;28;20220;-72
2021/10/30 00:46:15;;;;;;;23.03;19.40;;;11.00;99.90;;;;;;5046266;28;20208;-72
2021/10/30 00:48:41;;;;;;;21.83;19.53;;;11.00;99.90;;;;;;5047783;28;20224;-72
2021/10/30 00:51:08;;;;;;;21.53;19.30;;;11.00;99.90;;;;;;5047970;28;20288;-73
2021/10/30 00:53:36;;;;;;;23.83;19.43;;;11.00;99.90;;;;;;5047854;28;20268;-74
2021/10/30 00:56:05;;;;;;;22.60;18.87;;;11.00;99.90;;;;;;5048188;28;20204;-74
2021/10/30 00:58:34;;;;;;;23.30;20.30;;;11.00;99.90;;;;;;5047592;28;20298;-75
2021/10/30 01:01:03;;;;;;;25.13;20.03;;;11.00;99.90;;;;;;5047880;28;20275;-74
2021/10/30 01:03:31;;;;;;;21.83;19.20;;;11.00;99.90;;;;;;5047831;27;20288;-75
2021/10/30 01:05:58;;;;;;;23.33;20.20;;;11.00;99.90;;;;;;5047725;28;20677;-75
2021/10/30 01:08:24;;;;;;;26.60;20.90;;;11.00;99.90;;;;;;5047394;28;20929;-75
2021/10/30 01:10:53;;;;;;;22.00;19.50;;;11.00;99.90;;;;;;5047505;28;20752;-74
2021/10/30 01:13:20;;;;;;;22.80;20.00;;;11.00;99.90;;;;;;5047963;28;20260;-74
2021/10/30 01:15:46;;;;;;;22.27;19.83;;;11.00;99.90;;;;;;5047360;28;20745;-75
2021/10/30 01:18:13;;;;;;;23.83;20.07;;;11.00;99.90;;;;;;5047754;28;20205;-74
2021/10/30 01:20:41;;;;;;;23.00;20.50;;;11.00;99.90;;;;;;5047663;28;20640;-74
2021/10/30 01:23:07;;;;;;;22.63;20.27;;;11.00;99.90;;;;;;5047493;28;20239;-74
2021/10/30 01:25:34;;;;;;;23.13;20.17;;;11.00;99.90;;;;;;5047697;28;20266;-74
2021/10/30 01:28:02;;;;;;;24.43;20.83;;;11.00;99.90;;;;;;5047573;28;20204;-74
2021/10/30 01:30:29;;;;;;;25.03;21.10;;;11.00;99.90;;;;;;5047767;28;20634;-75
2021/10/30 01:32:57;;;;;;;22.43;20.07;;;11.00;99.90;;;;;;5047499;28;20204;-74
2021/10/30 01:35:29;;;;;;;24.53;20.50;;;11.00;99.90;;;;;;5047521;28;20253;-74
2021/10/30 01:37:57;;;;;;;23.00;20.37;;;11.00;99.90;;;;;;5047450;28;20307;-74
2021/10/30 01:40:24;;;;;;;22.13;19.83;;;11.00;99.90;;;;;;5047007;28;20212;-75
2021/10/30 01:42:59;;;;;;;23.57;20.87;;;11.00;99.90;;;;;;5047397;28;20261;-75
2021/10/30 01:45:26;;;;;;;26.47;20.80;;;10.90;99.90;;;;;;5047421;28;20196;-75
2021/10/30 01:47:52;;;;;;;23.20;20.17;;;10.90;99.90;;;;;;5047681;28;20273;-75
2021/10/30 01:50:19;;;;;;;23.13;20.53;;;10.90;99.90;;;;;;5047099;28;20228;-72
2021/10/30 01:52:47;;;;;;;23.17;20.47;;;10.90;99.90;;;;;;5047372;28;20212;-72
2021/10/30 01:55:16;;;;;;;23.50;20.03;;;10.90;99.90;;;;;;5047276;28;20208;-72
2021/10/30 01:57:43;;;;;;;23.10;20.20;;;10.90;99.90;;;;;;5046740;28;20613;-72
2021/10/30 02:00:11;;;;;;;25.60;21.17;;;10.80;99.90;;;;;;5046767;28;20236;-72
2021/10/30 02:02:38;;;;;;;23.07;20.50;;;10.80;99.90;;;;;;5046858;28;20296;-72
2021/10/30 02:05:05;;;;;;;24.47;21.13;;;10.80;99.90;;;;;;5047222;28;20212;-72
2021/10/30 02:07:32;;;;;;;23.57;20.90;;;10.80;99.90;;;;;;5046848;28;20212;-74
2021/10/30 02:09:59;;;;;;;24.03;20.63;;;10.80;99.90;;;;;;5046703;28;20632;-72
2021/10/30 02:12:28;;;;;;;22.60;20.13;;;10.80;99.90;;;;;;5046814;28;20615;-72
2021/10/30 02:14:55;;;;;;;23.17;19.60;;;10.80;99.90;;;;;;5046998;28;20204;-73
2021/10/30 02:17:21;;;;;;;24.40;20.37;;;10.80;99.90;;;;;;5046914;28;20250;-73
2021/10/30 02:19:48;;;;;;;23.17;20.77;;;10.70;99.90;;;;;;5046662;28;20204;-73
2021/10/30 02:22:15;;;;;;;23.77;20.80;;;10.70;99.90;;;;;;5046509;28;20969;-74
2021/10/30 02:24:43;;;;;;;22.70;20.30;;;10.70;99.90;;;;;;5046327;27;20961;-74
2021/10/30 02:27:10;;;;;;;24.80;20.93;;;10.70;99.90;;;;;;5046308;28;20255;-73
2021/10/30 02:29:38;;;;;;;23.97;21.13;;;10.70;99.90;;;;;;5046552;28;20211;-74
2021/10/30 02:32:06;;;;;;;23.83;20.77;;;10.70;99.90;;;;;;5046404;28;20264;-74
2021/10/30 02:34:32;;;;;;;23.90;21.33;;;10.70;99.90;;;;;;5046489;28;20212;-74
2021/10/30 02:36:59;;;;;;;23.70;20.93;;;10.70;99.90;;;;;;5046512;28;20320;-74
2021/10/30 02:39:26;;;;;;;23.97;21.30;;;10.70;99.90;;;;;;5045866;28;20232;-74
2021/10/30 02:41:52;;;;;;;25.47;21.27;;;10.70;99.90;;;;;;5046472;28;20235;-74
2021/10/30 02:44:19;;;;;;;24.77;20.13;;;10.70;99.90;;;;;;5046469;28;20212;-74
2021/10/30 02:46:47;;;;;;;22.03;19.73;;;10.60;99.90;;;;;;5046129;28;20666;-74
2021/10/30 02:49:14;;;;;;;25.47;20.97;;;10.70;99.90;;;;;;5046361;28;20261;-74
2021/10/30 02:51:40;;;;;;;26.30;21.97;;;10.70;99.90;;;;;;5046141;28;20281;-74
2021/10/30 02:54:07;;;;;;;24.27;20.33;;;10.70;99.90;;;;;;5046389;27;20661;-74
2021/10/30 02:56:35;;;;;;;24.37;20.27;;;10.60;99.90;;;;;;5046300;28;20257;-73
2021/10/30 02:59:02;;;;;;;23.77;20.97;;;10.60;99.90;;;;;;5046002;28;20236;-73
2021/10/30 03:01:29;;;;;;;23.60;20.07;;;10.60;99.90;;;;;;5045863;28;20264;-73
2021/10/30 03:03:57;;;;;;;26.47;21.93;;;10.60;99.90;;;;;;5046032;28;20268;-73
2021/10/30 03:06:25;;;;;;;23.20;20.73;;;10.60;99.90;;;;;;5045949;28;20208;-74
2021/10/30 03:08:53;;;;;;;23.97;20.80;;;10.60;99.90;;;;;;5045164;28;20270;-74
2021/10/30 03:11:20;;;;;;;24.33;20.97;;;10.60;99.90;;;;;;5046086;28;20218;-74
2021/10/30 03:13:47;;;;;;;23.57;21.17;;;10.60;99.90;;;;;;5045892;28;20295;-74
2021/10/30 03:16:13;;;;;;;24.37;21.30;;;10.60;99.90;;;;;;5046329;28;20269;-74
2021/10/30 03:18:40;;;;;;;23.20;20.73;;;10.50;99.90;;;;;;5045758;28;20287;-74
2021/10/30 03:21:08;;;;;;;25.37;21.33;;;10.50;99.90;;;;;;5046116;28;20274;-73
2021/10/30 03:23:35;;;;;;;24.13;21.53;;;10.50;99.90;;;;;;5045932;28;20208;-73
2021/10/30 03:26:01;;;;;;;24.17;20.53;;;10.50;99.90;;;;;;5045243;28;20717;-72
2021/10/30 03:28:28;;;;;;;23.83;20.63;;;10.50;99.90;;;;;;5045551;28;20674;-73
2021/10/30 03:30:55;;;;;;;24.17;20.37;;;10.50;99.90;;;;;;5045408;28;20208;-73
2021/10/30 03:33:22;;;;;;;24.23;21.57;;;10.50;99.90;;;;;;5045697;28;20265;-72
2021/10/30 03:35:49;;;;;;;25.20;20.77;;;10.50;99.90;;;;;;5045680;28;20207;-73
2021/10/30 03:38:17;;;;;;;23.47;20.53;;;10.50;99.90;;;;;;5045480;28;20256;-72
2021/10/30 03:40:43;;;;;;;23.23;19.63;;;10.50;99.90;;;;;;5045176;28;20703;-72
2021/10/30 03:43:10;;;;;;;26.93;20.43;;;10.50;99.90;;;;;;5045587;28;20247;-72
2021/10/30 03:45:37;;;;;;;22.17;19.77;;;10.50;99.90;;;;;;5045184;28;20742;-72
2021/10/30 03:48:04;;;;;;;22.40;19.87;;;10.40;99.90;;;;;;5045444;28;20232;-72
2021/10/30 03:50:31;;;;;;;24.80;20.07;;;10.50;99.90;;;;;;5045213;28;20228;-72
2021/10/30 03:52:58;;;;;;;22.33;19.53;;;10.40;99.90;;;;;;5045222;28;20212;-72
2021/10/30 03:55:26;;;;;;;24.33;20.37;;;10.40;99.90;;;;;;5045335;28;20209;-72
2021/10/30 03:57:53;;;;;;;23.20;20.23;;;10.40;99.90;;;;;;5044934;28;20968;-72
2021/10/30 04:00:20;;;;;;;21.33;18.97;;;10.40;99.90;;;;;;5044842;28;20296;-71
2021/10/30 04:02:46;;;;;;;21.47;19.00;;;10.40;99.90;;;;;;5045436;28;20288;-72
2021/10/30 04:05:14;;;;;;;21.80;18.50;;;10.40;99.90;;;;;;5045332;28;20211;-72
2021/10/30 04:07:41;;;;;;;26.00;19.80;;;10.40;99.90;;;;;;5045189;28;20232;-74
2021/10/30 04:10:08;;;;;;;23.17;19.83;;;10.40;99.90;;;;;;5045354;28;20228;-74
2021/10/30 04:12:36;;;;;;;21.57;18.90;;;10.40;99.90;;;;;;5045181;28;20212;-74
2021/10/30 04:15:03;;;;;;;23.63;18.77;;;10.40;99.90;;;;;;5045122;28;20265;-74
2021/10/30 04:17:30;;;;;;;23.07;19.27;;;10.40;99.90;;;;;;5045253;28;20239;-74
2021/10/30 04:19:56;;;;;;;23.20;19.43;;;10.30;99.90;;;;;;5045236;28;20257;-74
2021/10/30 04:22:23;;;;;;;21.93;18.93;;;10.30;99.90;;;;;;5048201;28;20228;-74
2021/10/30 04:24:50;;;;;;;21.07;18.67;;;10.30;99.90;;;;;;5048481;28;20224;-74
2021/10/30 04:27:17;;;;;;;21.80;19.30;;;10.30;99.90;;;;;;5048704;28;20227;-74
2021/10/30 04:29:45;;;;;;;23.67;18.67;;;10.20;99.90;;;;;;5048380;27;20645;-73
2021/10/30 04:32:13;;;;;;;20.53;18.07;;;10.20;99.90;;;;;;5048634;28;20211;-72
2021/10/30 04:34:44;;;;;;;21.60;18.63;;;10.20;99.90;;;;;;5048192;28;20674;-72
2021/10/30 04:37:15;;;;;;;24.40;19.63;;;10.20;99.90;;;;;;5048417;28;20207;-72
2021/10/30 04:39:42;;;;;;;21.40;18.67;;;10.20;99.90;;;;;;5048263;28;20220;-74
2021/10/30 04:42:09;;;;;;;24.50;19.03;;;10.20;99.90;;;;;;5048396;28;20274;-73
2021/10/30 04:44:36;;;;;;;23.40;19.73;;;10.20;99.90;;;;;;5047742;28;20686;-74
2021/10/30 04:47:05;;;;;;;22.30;18.77;;;10.20;99.90;;;;;;5047775;28;20272;-72
2021/10/30 04:49:32;;;;;;;22.70;19.10;;;10.20;99.90;;;;;;5048187;28;20264;-72
2021/10/30 04:51:59;;;;;;;21.60;19.23;;;10.10;99.90;;;;;;5048211;28;20220;-72
2021/10/30 04:54:26;;;;;;;21.13;18.57;;;10.10;99.90;;;;;;5047768;28;20204;-72
2021/10/30 04:56:53;;;;;;;23.17;18.47;;;10.00;99.90;;;;;;5048180;27;20208;-73
2021/10/30 04:59:19;;;;;;;20.40;17.77;;;10.00;99.90;;;;;;5047394;28;20733;-73
2021/10/30 05:01:48;;;;;;;20.10;18.00;;;10.00;99.90;;;;;;5048124;28;20339;-73
2021/10/30 05:04:16;;;;;;;22.87;18.33;;;9.90;99.90;;;;;;5048086;28;20221;-73
2021/10/30 05:06:42;;;;;;;25.93;19.03;;;9.90;99.90;;;;;;5047767;28;20276;-73
2021/10/30 05:09:09;;;;;;;21.57;17.27;;;9.90;99.90;;;;;;5047641;28;20239;-73
2021/10/30 05:11:36;;;;;;;20.43;18.23;;;9.90;99.90;;;;;;5047692;28;20285;-73
2021/10/30 05:14:03;;;;;;;20.73;18.03;;;9.90;99.90;;;;;;5047762;28;20211;-73
2021/10/30 05:16:29;;;;;;;19.63;17.30;;;9.80;99.90;;;;;;5047732;27;20265;-73
2021/10/30 05:18:56;;;;;;;21.13;17.60;;;9.90;99.90;;;;;;5047312;28;20674;-73
2021/10/30 05:21:24;;;;;;;21.30;17.43;;;9.90;99.90;;;;;;5047503;28;20265;-73
2021/10/30 05:23:51;;;;;;;20.87;17.70;;;9.90;99.90;;;;;;5047587;28;20268;-72
2021/10/30 05:26:17;;;;;;;22.00;17.30;;;9.90;99.90;;;;;;5047661;28;20631;-73
2021/10/30 05:28:44;;;;;;;21.47;18.13;;;9.90;99.90;;;;;;5047325;28;20227;-72
2021/10/30 05:31:11;;;;;;;19.57;17.17;;;9.90;99.90;;;;;;5047145;28;20204;-72
2021/10/30 05:33:38;;;;;;;18.37;16.07;;;9.90;99.90;;;;;;5047505;28;20212;-73
2021/10/30 05:36:06;;;;;;;18.60;16.60;;;9.90;99.90;;;;;;5047539;28;20257;-73
2021/10/30 05:38:34;;;;;;;19.40;17.30;;;9.80;99.90;;;;;;5047572;28;20227;-75
2021/10/30 05:41:01;;;;;;;18.80;16.83;;;9.90;99.90;;;;;;5047643;28;20216;-74
2021/10/30 05:43:28;;;;;;;21.83;17.20;;;9.80;99.90;;;;;;5047330;28;20232;-73
2021/10/30 05:45:54;;;;;;;18.00;15.97;;;9.80;99.90;;;;;;5047493;28;20546;-73
2021/10/30 05:48:21;;;;;;;20.40;16.73;;;9.80;99.90;;;;;;5047074;28;20676;-73
2021/10/30 05:50:47;;;;;;;18.00;16.10;;;9.80;99.90;;;;;;5047435;27;20224;-74
2021/10/30 05:53:14;;;;;;;19.53;16.70;;;9.80;99.90;;;;;;5046830;28;20622;-74
2021/10/30 05:55:42;;;;;;;19.33;16.00;;;9.80;99.90;;;;;;5047041;28;20208;-73
2021/10/30 05:58:09;;;;;;;19.70;16.67;;;9.80;99.90;;;;;;5047312;28;20204;-74
2021/10/30 06:00:35;;;;;;;18.63;16.43;;;9.80;99.90;;;;;;5046622;28;20303;-74
2021/10/30 06:03:04;;;;;;;19.50;16.50;;;9.80;99.90;;;;;;5046747;28;20263;-74
2021/10/30 06:05:31;;;;;;;20.83;17.13;;;9.80;99.90;;;;;;5046958;28;20236;-75
2021/10/30 06:07:58;;;;;;;17.63;15.70;;;9.80;99.90;;;;;;5047005;28;20232;-74
2021/10/30 06:10:26;;;;;;;20.70;16.83;;;9.80;99.90;;;;;;5046941;28;20204;-74
2021/10/30 06:12:54;;;;;;;17.53;15.70;;;9.80;99.90;;;;;;5046419;28;20264;-74
2021/10/30 06:15:20;;;;;;;19.17;15.63;;;9.80;99.90;;;;;;5046739;28;20204;-74
2021/10/30 06:17:47;;;;;;;18.37;15.50;;;9.80;99.90;;;;;;5047246;28;20257;-75
2021/10/30 06:20:14;;;;;;;19.90;16.50;;;9.70;99.90;;;;;;5046958;28;20256;-76
2021/10/30 06:22:43;;;;;;;18.93;15.77;;;9.70;99.90;;;;;;5046707;28;21001;-75
2021/10/30 06:25:10;;;;;;;23.07;16.60;;;9.70;99.90;;;;;;5046766;28;20354;-74
2021/10/30 06:27:37;;;;;;;21.70;16.93;;;9.70;99.90;;;;;;5046656;28;20215;-75
2021/10/30 06:30:06;;;;;;;19.57;16.30;;;9.60;99.90;;;;;;5046451;28;20303;-76
2021/10/30 06:32:33;;;;;;;18.87;16.83;;;9.60;99.90;;;;;;5046688;28;20214;-76
2021/10/30 06:35:00;;;;;;;20.77;16.13;;;9.60;99.90;;;;;;5049156;27;20217;-77
2021/10/30 06:37:27;;;;;;;18.50;16.13;;;9.70;99.90;;;;;;5035480;27;20584;-75
2021/10/30 06:39:54;;;;;;;20.00;15.90;;;9.70;99.90;;;;;;5032495;28;20288;-74
2021/10/30 06:42:20;;;;;;;18.00;16.10;;;9.70;99.90;;;;;;5037059;28;20297;-74
2021/10/30 06:44:48;;;;;;;20.10;16.27;;;9.60;99.90;;;;;;5036450;28;20200;-74
2021/10/30 06:47:16;;;;;;;25.47;15.97;;;9.70;99.90;;;;;;5037228;28;20614;-73
2021/10/30 06:49:43;;;;;;;18.37;16.43;;;9.70;99.90;;;;;;5036178;28;20225;-73
2021/10/30 06:52:10;;;;;;;18.37;16.40;;;9.70;99.90;;;;;;5036120;28;20288;-73
2021/10/30 06:54:37;;;;;;;17.90;15.37;;;9.80;99.90;;;;;;5033429;28;20211;-73
2021/10/30 06:57:06;;;;;;;18.17;15.13;;;9.80;99.90;;;;;;5040048;28;20204;-73
2021/10/30 06:59:33;;;;;;;20.73;16.27;;;9.80;99.90;;;;;;5036236;28;20284;-72
2021/10/30 07:02:05;;;;;;;17.23;15.43;;;9.80;99.90;;;;;;5036689;28;20208;-72
2021/10/30 07:04:34;;;;;;;16.43;14.73;;;9.80;99.90;;;;;;5033885;28;20200;-73
2021/10/30 07:07:01;;;;;;;17.67;15.87;;;9.80;99.90;;;;;;5024016;28;20227;-72
2021/10/30 07:09:27;;;;;;;18.57;15.70;;;9.80;99.90;;;;;;5023058;28;20229;-72
2021/10/30 07:11:54;;;;;;;17.00;15.17;;;9.80;99.90;;;;;;5022277;28;21050;-71
2021/10/30 07:14:21;;;;;;;17.87;15.37;;;9.90;99.90;;;;;;5022513;28;20757;-72
2021/10/30 07:16:48;;;;;;;17.50;15.63;;;9.90;99.90;;;;;;5023551;28;20671;-72
2021/10/30 07:19:15;;;;;;;18.10;16.30;;;9.90;99.90;;;;;;5022773;28;20197;-71
2021/10/30 07:21:43;;;;;;;17.40;15.60;;;9.90;99.90;;;;;;5023097;28;20265;-72
2021/10/30 07:24:09;;;;;;;16.63;14.93;;;9.90;99.90;;;;;;5022597;28;20745;-72
2021/10/30 07:26:36;;;;;;;17.43;15.57;;;9.90;99.90;;;;;;5023646;28;20212;-73
2021/10/30 07:29:03;;;;;;;18.07;15.03;;;10.00;99.90;;;;;;5023728;28;20209;-72
2021/10/30 07:31:30;;;;;;;17.27;15.47;;;10.10;99.90;;;;;;5022407;28;20807;-72
2021/10/30 07:33:56;;;;;;;19.87;15.23;;;10.10;99.90;;;;;;5023326;28;20209;-72
2021/10/30 07:36:23;;;;;;;16.70;15.00;;;10.20;99.90;;;;;;5023265;28;20208;-70
2021/10/30 07:38:51;;;;;;;18.20;15.60;;;10.30;99.90;;;;;;5023560;28;20220;-71
2021/10/30 07:41:18;;;;;;;16.33;14.63;;;10.30;99.90;;;;;;5023193;28;20197;-73
2021/10/30 07:43:45;;;;;;;18.13;15.83;;;10.40;99.90;;;;;;5022028;28;20982;-73
2021/10/30 07:46:11;;;;;;;16.97;15.27;;;10.50;99.90;;;;;;5022588;28;20277;-73
2021/10/30 07:48:41;;;;;;;17.57;15.83;;;10.60;99.90;;;;;;5022522;28;20221;-73
2021/10/30 07:51:07;;;;;;;18.30;15.77;;;10.70;99.90;;;;;;5022974;28;20208;-73
2021/10/30 07:53:34;;;;;;;16.93;15.23;;;10.80;99.90;;;;;;5023544;28;20205;-73
2021/10/30 07:56:02;;;;;;;18.23;15.37;;;10.90;99.90;;;;;;5025228;28;20212;-73
2021/10/30 07:58:28;;;;;;;17.10;15.23;;;10.90;99.90;;;;;;5024873;28;20227;-73
2021/10/30 08:00:55;;;;;;;17.30;15.50;;;11.00;99.90;;;;;;5025601;28;20193;-72
2021/10/30 08:03:22;;;;;;;17.17;15.33;;;11.00;99.90;;;;;;5025361;28;20240;-76
2021/10/30 08:05:48;;;;;;;17.13;15.13;;;11.10;99.90;;;;;;5025587;28;20266;-73
2021/10/30 08:08:15;;;;;;;15.97;14.23;;;11.10;99.90;;;;;;5024661;28;20277;-73
2021/10/30 08:10:41;;;;;;;17.00;15.20;;;11.20;99.90;;;;;;5025158;28;20735;-73
2021/10/30 08:13:11;;;;;;;17.17;14.60;;;11.30;99.90;;;;;;5025456;28;20231;-71
2021/10/30 08:15:37;;;;;;;16.60;14.83;;;11.40;99.90;;;;;;5025197;28;20231;-71
2021/10/30 08:18:04;;;;;;;17.13;14.73;;;11.60;99.90;;;;;;5031709;28;20216;-71
2021/10/30 08:20:32;;;;;;;17.23;15.53;;;11.60;99.90;;;;;;5044780;28;20272;-73
2021/10/30 08:22:58;;;;;;;16.47;14.70;;;11.70;99.90;;;;;;5044224;28;20308;-72
2021/10/30 08:25:25;;;;;;;16.07;14.57;;;11.70;99.90;;;;;;5044906;28;20389;-71
2021/10/30 08:27:52;;;;;;;15.50;14.00;;;11.80;99.90;;;;;;5044811;28;20669;-71
2021/10/30 08:30:20;;;;;;;16.83;14.67;;;11.90;99.90;;;;;;5044832;28;20209;-71
2021/10/30 08:32:46;;;;;;;18.63;15.27;;;12.00;99.90;;;;;;5044788;28;20248;-71
2021/10/30 08:35:13;;;;;;;16.77;14.97;;;12.00;99.90;;;;;;5045336;28;20210;-71
2021/10/30 08:37:40;;;;;;;15.60;14.10;;;12.00;99.90;;;;;;5044909;28;20216;-72
2021/10/30 08:40:10;;;;;;;16.23;14.57;;;12.00;99.90;;;;;;5044860;28;20208;-72
2021/10/30 08:42:37;;;;;;;18.07;14.93;;;12.00;99.90;;;;;;5044640;28;20208;-71
2021/10/30 08:45:06;;;;;;;15.33;13.83;;;12.10;99.90;;;;;;5044437;28;20253;-71
2021/10/30 08:47:34;;;;;;;16.00;14.30;;;12.20;99.90;;;;;;5044171;28;20260;-72
2021/10/30 08:50:01;;;;;;;15.70;14.20;;;12.20;99.90;;;;;;5044493;28;20363;-72
2021/10/30 08:52:27;;;;;;;17.67;14.10;;;12.30;99.90;;;;;;5044166;28;20722;-72
2021/10/30 08:54:54;;;;;;;15.57;13.30;;;12.40;99.90;;;;;;5044703;28;20261;-72
2021/10/30 08:57:21;;;;;;;15.07;13.57;;;12.50;99.90;;;;;;5044571;28;20280;-71
2021/10/30 08:59:48;;;;;;;16.10;14.40;;;12.50;99.90;;;;;;5044387;28;20236;-72
2021/10/30 09:02:26;;;;;;;15.67;14.13;;;12.60;99.90;;;;;;5044380;28;20200;-72
2021/10/30 09:05:10;;;;;;;15.30;13.70;;;12.60;99.90;;;;;;5044717;28;20224;-72
2021/10/30 09:07:37;;;;;;;13.63;12.33;;;12.70;99.90;;;;;;5046229;28;20235;-71
2021/10/30 09:10:09;;;;;;;14.47;12.30;;;12.80;99.90;;;;;;5047882;28;20211;-72
2021/10/30 09:12:36;;;;;;;16.30;13.33;;;12.90;99.90;;;;;;5047287;28;20193;-72
2021/10/30 09:15:03;;;;;;;14.93;13.53;;;12.90;99.90;;;;;;5047551;28;20212;-72
2021/10/30 09:17:30;;;;;;;15.00;13.40;;;13.00;99.90;;;;;;5047699;28;20204;-72
2021/10/30 09:19:57;;;;;;;15.03;13.43;;;13.10;99.90;;;;;;5044724;28;20296;-70
2021/10/30 09:22:27;;;;;;;16.73;14.37;;;13.10;99.90;;;;;;5043656;28;20212;-71
2021/10/30 09:25:01;;;;;;;14.90;13.47;;;13.20;99.90;;;;;;5043632;28;20236;-71
2021/10/30 09:27:53;;;;;;;14.90;12.77;;;13.30;99.90;;;;;;5043307;28;20287;-72
2021/10/30 09:30:22;;;;;;;14.60;13.23;;;13.40;99.90;;;;;;5043873;28;20287;-72
2021/10/30 09:32:57;;;;;;;15.13;13.53;;;13.50;99.90;;;;;;5043554;28;20216;-72
2021/10/30 09:35:27;;;;;;;14.57;13.07;;;13.50;99.90;;;;;;5043776;28;20224;-72
2021/10/30 09:37:55;;;;;;;14.27;12.80;;;13.60;99.90;;;;;;5044022;28;20204;-72
2021/10/30 09:40:26;;;;;;;13.80;12.37;;;13.70;99.90;;;;;;5043324;28;20295;-72
2021/10/30 09:43:06;;;;;;;13.80;12.50;;;13.80;99.90;;;;;;5043242;28;20208;-72
2021/10/30 09:45:34;;;;;;;13.33;11.93;;;13.90;99.90;;;;;;5042772;28;20701;-72
2021/10/30 09:48:02;;;;;;;13.27;11.83;;;14.00;99.90;;;;;;5043221;28;20268;-72
2021/10/30 09:50:32;;;;;;;13.70;12.30;;;14.00;99.90;;;;;;5043532;27;20232;-72
2021/10/30 09:53:03;;;;;;;13.60;12.30;;;14.10;99.90;;;;;;5043544;28;20216;-72
2021/10/30 09:55:30;;;;;;;13.13;11.93;;;14.20;99.90;;;;;;5043326;28;20231;-72
2021/10/30 09:58:04;;;;;;;15.47;12.37;;;14.20;99.90;;;;;;5043449;28;20590;-72
2021/10/30 10:00:36;;;;;;;15.50;12.00;;;14.30;99.90;;;;;;5042789;28;20659;-72
2021/10/30 10:03:03;;;;;;;12.90;11.57;;;14.40;99.90;;;;;;5043534;28;20601;-72
2021/10/30 10:05:36;;;;;;;12.90;11.57;;;14.50;99.90;;;;;;5043005;28;20269;-72
2021/10/30 10:08:05;;;;;;;13.57;12.17;;;14.60;99.90;;;;;;5042650;28;20682;-72
2021/10/30 10:10:33;;;;;;;14.33;12.13;;;14.70;99.90;;;;;;5042233;28;20575;-72
2021/10/30 10:12:59;;;;;;;14.07;12.67;;;14.70;99.90;;;;;;5043192;28;20211;-72
2021/10/30 10:15:26;;;;;;;14.83;13.30;;;14.80;99.90;;;;;;5043041;28;20300;-72
2021/10/30 10:17:54;;;;;;;13.87;12.67;;;14.90;99.90;;;;;;5042894;28;20244;-72
2021/10/30 10:20:21;;;;;;;13.80;12.17;;;15.10;99.90;;;;;;5034599;28;20209;-72
2021/10/30 10:22:49;;;;;;;13.93;12.50;;;15.30;99.90;;;;;;5023184;28;20245;-72
2021/10/30 10:25:28;;;;;;;14.93;13.33;;;15.30;99.90;;;;;;5022764;28;20268;-71
2021/10/30 10:27:55;;;;;;;14.57;12.60;;;15.40;99.90;;;;;;5022791;28;20211;-72
2021/10/30 10:30:22;;;;;;;14.30;12.80;;;15.40;99.90;;;;;;5022758;28;20212;-72
2021/10/30 10:32:49;;;;;;;13.93;12.50;;;15.50;99.90;;;;;;5022627;28;20285;-72
2021/10/30 10:35:18;;;;;;;16.23;12.37;;;15.60;99.90;;;;;;5022735;28;20270;-71
2021/10/30 10:37:49;;;;;;;13.80;12.13;;;15.60;99.90;;;;;;5022631;28;20257;-73
2021/10/30 10:40:31;;;;;;;13.47;12.17;;;15.70;99.90;;;;;;5022627;28;20220;-73
2021/10/30 10:42:57;;;;;;;12.93;11.70;;;15.80;99.90;;;;;;5022925;28;20211;-73
2021/10/30 10:45:24;;;;;;;12.37;11.07;;;15.80;99.90;;;;;;5022107;28;20245;-72
2021/10/30 10:48:02;;;;;;;12.93;11.70;;;15.80;99.90;;;;;;5022658;28;20257;-73
2021/10/30 10:50:41;;;;;;;14.60;13.10;;;15.90;99.90;;;;;;5022142;28;20698;-72
2021/10/30 10:53:17;;;;;;;14.57;11.50;;;16.00;99.90;;;;;;5022510;28;20245;-72
2021/10/30 10:56:10;;;;;;;12.60;11.37;;;16.10;99.90;;;;;;5022071;28;20199;-71
2021/10/30 10:59:14;;;;;;;13.07;11.47;;;16.30;99.90;;;;;;5022313;28;20680;-71
2021/10/30 11:02:01;;;;;;;13.90;12.47;;;16.40;99.90;;;;;;5022149;28;20204;-72
2021/10/30 11:04:28;;;;;;;11.77;10.67;;;16.40;99.90;;;;;;5021532;28;20376;-72
2021/10/30 11:07:13;;;;;;;12.67;11.30;;;16.60;99.90;;;;;;5026871;27;20261;-71
2021/10/30 11:09:48;;;;;;;12.80;11.50;;;16.90;99.90;;;;;;5033292;27;20284;-71
2021/10/30 11:12:25;;;;;;;14.23;10.63;;;17.00;99.90;;;;;;5035968;28;20200;-72
2021/10/30 11:15:05;;;;;;;14.17;12.70;;;17.10;99.90;;;;;;5034732;28;20285;-72
2021/10/30 11:17:37;;;;;;;13.00;11.53;;;17.10;99.90;;;;;;5040393;28;20214;-72
2021/10/30 11:20:13;;;;;;;12.63;11.33;;;17.00;99.90;;;;;;5040707;28;20201;-72
2021/10/30 11:22:54;;;;;;;12.90;11.70;;;17.00;99.90;;;;;;5040294;28;20239;-72
2021/10/30 11:25:21;;;;;;;12.90;11.47;;;17.00;99.90;;;;;;5038656;28;20327;-72
2021/10/30 11:27:53;;;;;;;12.90;11.60;;;17.00;99.90;;;;;;5041332;27;20220;-72
2021/10/30 11:30:35;;;;;;;12.67;11.37;;;17.10;99.90;;;;;;5037416;28;20207;-72
2021/10/30 11:33:23;;;;;;;12.30;11.20;;;17.10;99.90;;;;;;5040592;27;20224;-72
2021/10/30 11:36:01;;;;;;;12.13;10.90;;;17.10;99.90;;;;;;5040672;28;20684;-72
2021/10/30 11:38:30;;;;;;;12.23;11.03;;;17.20;99.90;;;;;;5039508;28;20211;-72
2021/10/30 11:40:58;;;;;;;12.47;11.17;;;17.20;99.90;;;;;;5041112;28;20200;-72
2021/10/30 11:43:28;;;;;;;12.53;10.67;;;17.20;99.90;;;;;;5041025;28;20634;-72
2021/10/30 11:45:57;;;;;;;12.60;11.30;;;17.30;99.90;;;;;;5039970;28;20248;-72
2021/10/30 11:48:26;;;;;;;11.40;10.27;;;17.30;99.90;;;;;;5038249;28;20799;-72
2021/10/30 11:50:54;;;;;;;12.40;11.20;;;17.30;99.90;;;;;;5021933;28;20980;-72
2021/10/30 11:53:21;;;;;;;12.53;11.43;;;17.40;99.90;;;;;;5040005;28;20211;-71
2021/10/30 11:55:54;;;;;;;12.37;10.77;;;17.40;99.90;;;;;;5041539;28;20204;-72
2021/10/30 11:58:40;;;;;;;16.27;11.70;;;17.50;99.90;;;;;;5038265;28;20389;-72
2021/10/30 12:01:22;;;;;;;12.67;11.30;;;17.60;99.90;;;;;;5039557;28;20249;-72
2021/10/30 12:03:50;;;;;;;11.90;10.80;;;17.60;99.90;;;;;;5037797;28;20239;-75
2021/10/30 12:06:18;;;;;;;12.57;11.37;;;17.60;99.90;;;;;;5040420;28;20280;-75
2021/10/30 12:08:45;;;;;;;13.43;12.07;;;17.60;99.90;;;;;;5039738;28;20262;-72
2021/10/30 12:11:12;;;;;;;13.30;11.90;;;17.50;99.90;;;;;;5039874;28;20208;-72
2021/10/30 12:13:45;;;;;;;12.07;10.87;;;17.50;99.90;;;;;;5040996;28;20212;-72
2021/10/30 12:16:12;;;;;;;12.13;10.93;;;17.60;99.90;;;;;;5037449;28;20822;-72
2021/10/30 12:18:39;;;;;;;14.07;12.33;;;17.70;99.90;;;;;;5039783;28;20200;-72
2021/10/30 12:21:09;;;;;;;14.00;11.90;;;17.70;99.80;;;;;;5040336;28;20250;-72
2021/10/30 12:23:57;;;;;;;12.97;11.73;;;17.60;99.70;;;;;;5039541;28;20251;-72
2021/10/30 12:26:26;;;;;;;13.07;11.87;;;17.60;99.60;;;;;;5039719;28;20261;-72
2021/10/30 12:28:54;;;;;;;12.57;11.37;;;17.60;99.50;;;;;;5039316;28;20253;-72
2021/10/30 12:31:29;;;;;;;12.43;11.30;;;17.70;99.70;;;;;;5039669;28;20204;-72
2021/10/30 12:33:57;;;;;;;14.23;12.93;;;17.70;99.70;;;;;;5040236;28;20569;-72
2021/10/30 12:36:29;;;;;;;13.40;12.20;;;17.70;99.40;;;;;;5039490;27;20373;-71